sensor_id;sensor_type;location;lat;lon;timestamp;P1;durP1;ratioP1;P2;durP2;ratioP2
41043;SDS011;51680;49.806;18.774;2023-02-05T00:00:01;12.95;;;5.60;;
41043;SDS011;51680;49.806;18.774;2023-02-05T00:03:26;13.20;;;4.95;;
41043;SDS011;51680;49.806;18.774;2023-02-05T00:06:47;12.27;;;5.35;;
41043;SDS011;51680;49.806;18.774;2023-02-05T00:10:11;18.27;;;7.55;;
41043;SDS011;51680;49.806;18.774;2023-02-05T00:13:32;17.73;;;6.90;;
41043;SDS011;51680;49.806;18.774;2023-02-05T00:16:54;11.43;;;4.97;;
41043;SDS011;51680;49.806;18.774;2023-02-05T00:20:16;13.85;;;6.05;;
41043;SDS011;51680;49.806;18.774;2023-02-05T00:23:38;11.68;;;5.13;;
41043;SDS011;51680;49.806;18.774;2023-02-05T00:27:01;16.50;;;6.20;;
41043;SDS011;51680;49.806;18.774;2023-02-05T00:30:23;14.52;;;5.55;;
41043;SDS011;51680;49.806;18.774;2023-02-05T00:33:45;14.25;;;5.68;;
41043;SDS011;51680;49.806;18.774;2023-02-05T00:37:08;14.00;;;5.35;;
41043;SDS011;51680;49.806;18.774;2023-02-05T00:40:30;11.50;;;5.53;;
41043;SDS011;51680;49.806;18.774;2023-02-05T00:43:53;13.40;;;5.40;;
41043;SDS011;51680;49.806;18.774;2023-02-05T00:47:15;14.63;;;6.10;;
41043;SDS011;51680;49.806;18.774;2023-02-05T00:50:36;15.48;;;5.53;;
41043;SDS011;51680;49.806;18.774;2023-02-05T00:53:58;14.30;;;5.53;;
41043;SDS011;51680;49.806;18.774;2023-02-05T00:57:20;13.52;;;5.38;;
41043;SDS011;51680;49.806;18.774;2023-02-05T01:00:45;10.70;;;4.38;;
41043;SDS011;51680;49.806;18.774;2023-02-05T01:04:07;13.32;;;6.40;;
41043;SDS011;51680;49.806;18.774;2023-02-05T01:07:29;14.30;;;5.75;;
41043;SDS011;51680;49.806;18.774;2023-02-05T01:10:51;13.65;;;6.38;;
41043;SDS011;51680;49.806;18.774;2023-02-05T01:14:12;16.17;;;6.00;;
41043;SDS011;51680;49.806;18.774;2023-02-05T01:17:35;14.57;;;6.50;;
41043;SDS011;51680;49.806;18.774;2023-02-05T01:21:16;16.17;;;6.97;;
41043;SDS011;51680;49.806;18.774;2023-02-05T01:24:38;16.83;;;8.05;;
41043;SDS011;51680;49.806;18.774;2023-02-05T01:27:59;21.15;;;7.53;;
41043;SDS011;51680;49.806;18.774;2023-02-05T01:31:21;16.35;;;7.40;;
41043;SDS011;51680;49.806;18.774;2023-02-05T01:34:46;16.52;;;7.38;;
41043;SDS011;51680;49.806;18.774;2023-02-05T01:38:07;19.42;;;8.32;;
41043;SDS011;51680;49.806;18.774;2023-02-05T01:41:29;20.15;;;8.15;;
41043;SDS011;51680;49.806;18.774;2023-02-05T01:48:56;16.27;;;7.10;;
41043;SDS011;51680;49.806;18.774;2023-02-05T01:52:20;15.70;;;6.05;;
41043;SDS011;51680;49.806;18.774;2023-02-05T01:55:42;14.40;;;6.83;;
41043;SDS011;51680;49.806;18.774;2023-02-05T01:59:09;16.48;;;5.68;;
41043;SDS011;51680;49.806;18.774;2023-02-05T02:02:34;20.17;;;5.97;;
41043;SDS011;51680;49.806;18.774;2023-02-05T02:05:57;14.53;;;5.90;;
41043;SDS011;51680;49.806;18.774;2023-02-05T02:09:21;14.32;;;6.43;;
41043;SDS011;51680;49.806;18.774;2023-02-05T02:12:43;15.77;;;6.68;;
41043;SDS011;51680;49.806;18.774;2023-02-05T02:16:07;14.95;;;6.45;;
41043;SDS011;51680;49.806;18.774;2023-02-05T02:19:31;13.10;;;6.68;;
41043;SDS011;51680;49.806;18.774;2023-02-05T02:22:45;16.67;;;6.68;;
41043;SDS011;51680;49.806;18.774;2023-02-05T02:26:12;15.77;;;6.75;;
41043;SDS011;51680;49.806;18.774;2023-02-05T02:29:26;13.65;;;6.70;;
41043;SDS011;51680;49.806;18.774;2023-02-05T02:32:35;19.17;;;7.40;;
41043;SDS011;51680;49.806;18.774;2023-02-05T02:35:42;16.58;;;7.85;;
41043;SDS011;51680;49.806;18.774;2023-02-05T02:38:49;15.25;;;6.82;;
41043;SDS011;51680;49.806;18.774;2023-02-05T02:41:56;16.92;;;7.72;;
41043;SDS011;51680;49.806;18.774;2023-02-05T02:45:06;20.50;;;8.55;;
41043;SDS011;51680;49.806;18.774;2023-02-05T02:48:28;11.38;;;5.70;;
41043;SDS011;51680;49.806;18.774;2023-02-05T02:51:34;13.30;;;5.55;;
41043;SDS011;51680;49.806;18.774;2023-02-05T02:54:40;13.75;;;6.20;;
41043;SDS011;51680;49.806;18.774;2023-02-05T02:57:45;14.00;;;5.88;;
41043;SDS011;51680;49.806;18.774;2023-02-05T03:00:50;13.05;;;5.75;;
41043;SDS011;51680;49.806;18.774;2023-02-05T03:03:56;11.57;;;5.95;;
41043;SDS011;51680;49.806;18.774;2023-02-05T03:07:01;10.40;;;4.68;;
41043;SDS011;51680;49.806;18.774;2023-02-05T03:10:10;10.10;;;4.90;;
41043;SDS011;51680;49.806;18.774;2023-02-05T03:13:17;11.85;;;5.43;;
41043;SDS011;51680;49.806;18.774;2023-02-05T03:16:26;11.63;;;5.20;;
41043;SDS011;51680;49.806;18.774;2023-02-05T03:19:29;12.35;;;4.55;;
41043;SDS011;51680;49.806;18.774;2023-02-05T03:22:32;14.43;;;5.28;;
41043;SDS011;51680;49.806;18.774;2023-02-05T03:25:33;14.57;;;5.15;;
41043;SDS011;51680;49.806;18.774;2023-02-05T03:28:36;10.57;;;4.65;;
41043;SDS011;51680;49.806;18.774;2023-02-05T03:31:41;11.40;;;5.13;;
41043;SDS011;51680;49.806;18.774;2023-02-05T03:34:56;18.15;;;5.75;;
41043;SDS011;51680;49.806;18.774;2023-02-05T03:38:16;17.33;;;5.40;;
41043;SDS011;51680;49.806;18.774;2023-02-05T03:41:40;14.65;;;5.70;;
41043;SDS011;51680;49.806;18.774;2023-02-05T03:45:09;15.98;;;6.88;;
41043;SDS011;51680;49.806;18.774;2023-02-05T03:48:24;17.23;;;6.32;;
41043;SDS011;51680;49.806;18.774;2023-02-05T03:51:50;14.15;;;6.50;;
41043;SDS011;51680;49.806;18.774;2023-02-05T03:54:59;9.85;;;5.43;;
41043;SDS011;51680;49.806;18.774;2023-02-05T03:58:09;18.70;;;7.95;;
41043;SDS011;51680;49.806;18.774;2023-02-05T04:01:15;22.63;;;9.70;;
41043;SDS011;51680;49.806;18.774;2023-02-05T04:10:25;23.42;;;10.43;;
41043;SDS011;51680;49.806;18.774;2023-02-05T04:13:27;20.00;;;9.00;;
41043;SDS011;51680;49.806;18.774;2023-02-05T04:16:29;18.38;;;8.25;;
41043;SDS011;51680;49.806;18.774;2023-02-05T04:19:34;17.73;;;7.90;;
41043;SDS011;51680;49.806;18.774;2023-02-05T04:22:36;17.15;;;7.75;;
41043;SDS011;51680;49.806;18.774;2023-02-05T04:25:38;13.38;;;6.40;;
41043;SDS011;51680;49.806;18.774;2023-02-05T04:28:43;20.20;;;8.15;;
41043;SDS011;51680;49.806;18.774;2023-02-05T04:31:45;16.40;;;8.43;;
41043;SDS011;51680;49.806;18.774;2023-02-05T04:35:07;15.13;;;7.25;;
41043;SDS011;51680;49.806;18.774;2023-02-05T04:38:09;15.70;;;7.07;;
41043;SDS011;51680;49.806;18.774;2023-02-05T04:41:11;17.40;;;7.70;;
41043;SDS011;51680;49.806;18.774;2023-02-05T04:44:13;16.83;;;8.05;;
41043;SDS011;51680;49.806;18.774;2023-02-05T04:47:33;19.30;;;8.43;;
41043;SDS011;51680;49.806;18.774;2023-02-05T04:50:37;17.42;;;8.75;;
41043;SDS011;51680;49.806;18.774;2023-02-05T04:53:39;19.80;;;9.27;;
41043;SDS011;51680;49.806;18.774;2023-02-05T04:56:41;20.73;;;8.98;;
41043;SDS011;51680;49.806;18.774;2023-02-05T04:59:43;21.95;;;9.43;;
41043;SDS011;51680;49.806;18.774;2023-02-05T05:02:44;18.35;;;9.75;;
41043;SDS011;51680;49.806;18.774;2023-02-05T05:05:47;17.83;;;8.57;;
41043;SDS011;51680;49.806;18.774;2023-02-05T05:08:49;17.40;;;7.90;;
41043;SDS011;51680;49.806;18.774;2023-02-05T05:11:51;22.15;;;9.65;;
41043;SDS011;51680;49.806;18.774;2023-02-05T05:14:53;16.13;;;8.10;;
41043;SDS011;51680;49.806;18.774;2023-02-05T05:17:55;24.15;;;10.48;;
41043;SDS011;51680;49.806;18.774;2023-02-05T05:20:58;20.90;;;10.35;;
41043;SDS011;51680;49.806;18.774;2023-02-05T05:24:00;20.50;;;9.93;;
41043;SDS011;51680;49.806;18.774;2023-02-05T05:27:02;18.13;;;8.32;;
41043;SDS011;51680;49.806;18.774;2023-02-05T05:30:04;19.23;;;9.45;;
41043;SDS011;51680;49.806;18.774;2023-02-05T05:33:06;21.40;;;9.63;;
41043;SDS011;51680;49.806;18.774;2023-02-05T05:36:10;22.65;;;10.88;;
41043;SDS011;51680;49.806;18.774;2023-02-05T05:42:31;28.80;;;13.15;;
41043;SDS011;51680;49.806;18.774;2023-02-05T05:45:51;28.70;;;12.50;;
41043;SDS011;51680;49.806;18.774;2023-02-05T05:48:54;20.73;;;10.68;;
41043;SDS011;51680;49.806;18.774;2023-02-05T05:51:58;21.75;;;10.48;;
41043;SDS011;51680;49.806;18.774;2023-02-05T05:55:00;24.63;;;10.50;;
41043;SDS011;51680;49.806;18.774;2023-02-05T05:58:02;20.23;;;9.60;;
41043;SDS011;51680;49.806;18.774;2023-02-05T06:01:04;21.80;;;9.73;;
41043;SDS011;51680;49.806;18.774;2023-02-05T06:04:07;18.25;;;9.35;;
41043;SDS011;51680;49.806;18.774;2023-02-05T06:07:10;24.50;;;12.55;;
41043;SDS011;51680;49.806;18.774;2023-02-05T06:10:11;27.38;;;11.73;;
41043;SDS011;51680;49.806;18.774;2023-02-05T06:13:13;24.88;;;11.27;;
41043;SDS011;51680;49.806;18.774;2023-02-05T06:16:15;24.10;;;11.82;;
41043;SDS011;51680;49.806;18.774;2023-02-05T06:19:17;29.65;;;14.25;;
41043;SDS011;51680;49.806;18.774;2023-02-05T06:22:20;48.95;;;20.30;;
41043;SDS011;51680;49.806;18.774;2023-02-05T06:25:22;42.78;;;17.63;;
41043;SDS011;51680;49.806;18.774;2023-02-05T06:28:23;30.27;;;12.98;;
41043;SDS011;51680;49.806;18.774;2023-02-05T06:31:25;27.40;;;12.13;;
41043;SDS011;51680;49.806;18.774;2023-02-05T06:34:27;25.58;;;11.90;;
41043;SDS011;51680;49.806;18.774;2023-02-05T06:37:30;28.08;;;11.98;;
41043;SDS011;51680;49.806;18.774;2023-02-05T06:40:32;27.25;;;11.80;;
41043;SDS011;51680;49.806;18.774;2023-02-05T06:43:33;24.55;;;11.32;;
41043;SDS011;51680;49.806;18.774;2023-02-05T06:46:35;22.73;;;10.95;;
41043;SDS011;51680;49.806;18.774;2023-02-05T06:49:37;22.55;;;10.50;;
41043;SDS011;51680;49.806;18.774;2023-02-05T06:52:40;30.48;;;13.32;;
41043;SDS011;51680;49.806;18.774;2023-02-05T06:55:42;28.73;;;12.98;;
41043;SDS011;51680;49.806;18.774;2023-02-05T06:58:44;28.00;;;12.82;;
41043;SDS011;51680;49.806;18.774;2023-02-05T07:01:45;30.45;;;13.90;;
41043;SDS011;51680;49.806;18.774;2023-02-05T07:04:47;27.55;;;12.77;;
41043;SDS011;51680;49.806;18.774;2023-02-05T07:07:51;39.33;;;16.05;;
41043;SDS011;51680;49.806;18.774;2023-02-05T07:10:52;34.70;;;17.05;;
41043;SDS011;51680;49.806;18.774;2023-02-05T07:13:54;39.05;;;18.35;;
41043;SDS011;51680;49.806;18.774;2023-02-05T07:16:56;38.00;;;17.85;;
41043;SDS011;51680;49.806;18.774;2023-02-05T07:19:57;33.95;;;16.00;;
41043;SDS011;51680;49.806;18.774;2023-02-05T07:23:01;29.08;;;14.98;;
41043;SDS011;51680;49.806;18.774;2023-02-05T07:26:06;31.42;;;14.43;;
41043;SDS011;51680;49.806;18.774;2023-02-05T07:29:09;26.77;;;13.82;;
41043;SDS011;51680;49.806;18.774;2023-02-05T07:32:10;27.27;;;13.70;;
41043;SDS011;51680;49.806;18.774;2023-02-05T07:35:12;31.73;;;13.98;;
41043;SDS011;51680;49.806;18.774;2023-02-05T07:38:34;25.13;;;14.10;;
41043;SDS011;51680;49.806;18.774;2023-02-05T07:41:36;26.15;;;14.15;;
41043;SDS011;51680;49.806;18.774;2023-02-05T07:44:39;23.88;;;12.45;;
41043;SDS011;51680;49.806;18.774;2023-02-05T07:47:41;25.63;;;12.90;;
41043;SDS011;51680;49.806;18.774;2023-02-05T07:50:42;30.27;;;14.73;;
41043;SDS011;51680;49.806;18.774;2023-02-05T07:53:46;25.55;;;13.13;;
41043;SDS011;51680;49.806;18.774;2023-02-05T07:56:48;27.50;;;12.48;;
41043;SDS011;51680;49.806;18.774;2023-02-05T07:59:49;22.98;;;11.88;;
41043;SDS011;51680;49.806;18.774;2023-02-05T08:02:51;23.35;;;12.30;;
41043;SDS011;51680;49.806;18.774;2023-02-05T08:05:53;26.95;;;13.88;;
41043;SDS011;51680;49.806;18.774;2023-02-05T08:08:58;27.50;;;15.18;;
41043;SDS011;51680;49.806;18.774;2023-02-05T08:11:59;36.92;;;17.88;;
41043;SDS011;51680;49.806;18.774;2023-02-05T08:15:01;34.13;;;18.98;;
41043;SDS011;51680;49.806;18.774;2023-02-05T08:18:03;33.95;;;19.33;;
41043;SDS011;51680;49.806;18.774;2023-02-05T08:21:05;39.72;;;22.55;;
41043;SDS011;51680;49.806;18.774;2023-02-05T08:24:08;33.00;;;18.15;;
41043;SDS011;51680;49.806;18.774;2023-02-05T08:27:10;36.88;;;19.20;;
41043;SDS011;51680;49.806;18.774;2023-02-05T08:30:13;36.00;;;18.60;;
41043;SDS011;51680;49.806;18.774;2023-02-05T08:33:16;34.70;;;19.08;;
41043;SDS011;51680;49.806;18.774;2023-02-05T08:36:19;36.03;;;18.55;;
41043;SDS011;51680;49.806;18.774;2023-02-05T08:39:22;183.77;;;79.40;;
41043;SDS011;51680;49.806;18.774;2023-02-05T08:42:25;95.38;;;39.55;;
41043;SDS011;51680;49.806;18.774;2023-02-05T08:45:27;180.73;;;81.95;;
41043;SDS011;51680;49.806;18.774;2023-02-05T08:48:29;48.55;;;24.85;;
41043;SDS011;51680;49.806;18.774;2023-02-05T08:51:49;51.55;;;27.20;;
41043;SDS011;51680;49.806;18.774;2023-02-05T08:54:53;52.10;;;26.15;;
41043;SDS011;51680;49.806;18.774;2023-02-05T08:57:55;52.78;;;23.92;;
41043;SDS011;51680;49.806;18.774;2023-02-05T09:01:00;49.22;;;22.65;;
41043;SDS011;51680;49.806;18.774;2023-02-05T09:04:02;49.53;;;23.90;;
41043;SDS011;51680;49.806;18.774;2023-02-05T09:07:04;54.92;;;24.23;;
41043;SDS011;51680;49.806;18.774;2023-02-05T09:10:08;45.53;;;22.27;;
41043;SDS011;51680;49.806;18.774;2023-02-05T09:13:11;46.55;;;20.60;;
41043;SDS011;51680;49.806;18.774;2023-02-05T09:16:13;28.95;;;14.98;;
41043;SDS011;51680;49.806;18.774;2023-02-05T09:19:14;35.30;;;16.35;;
41043;SDS011;51680;49.806;18.774;2023-02-05T09:22:16;35.50;;;16.40;;
41043;SDS011;51680;49.806;18.774;2023-02-05T09:25:19;29.27;;;14.68;;
41043;SDS011;51680;49.806;18.774;2023-02-05T09:28:21;29.10;;;15.15;;
41043;SDS011;51680;49.806;18.774;2023-02-05T09:31:23;46.38;;;20.95;;
41043;SDS011;51680;49.806;18.774;2023-02-05T09:34:25;49.97;;;20.58;;
41043;SDS011;51680;49.806;18.774;2023-02-05T09:37:27;36.67;;;18.08;;
41043;SDS011;51680;49.806;18.774;2023-02-05T09:40:53;33.50;;;16.85;;
41043;SDS011;51680;49.806;18.774;2023-02-05T09:43:58;31.73;;;16.38;;
41043;SDS011;51680;49.806;18.774;2023-02-05T09:47:09;44.63;;;21.85;;
41043;SDS011;51680;49.806;18.774;2023-02-05T09:50:15;44.22;;;21.02;;
41043;SDS011;51680;49.806;18.774;2023-02-05T09:53:25;38.03;;;18.23;;
41043;SDS011;51680;49.806;18.774;2023-02-05T09:56:34;39.15;;;18.27;;
41043;SDS011;51680;49.806;18.774;2023-02-05T09:59:38;38.75;;;18.05;;
41043;SDS011;51680;49.806;18.774;2023-02-05T10:02:45;45.97;;;23.83;;
41043;SDS011;51680;49.806;18.774;2023-02-05T10:05:55;34.22;;;16.70;;
41043;SDS011;51680;49.806;18.774;2023-02-05T10:09:08;36.30;;;18.23;;
41043;SDS011;51680;49.806;18.774;2023-02-05T10:12:28;33.90;;;17.88;;
41043;SDS011;51680;49.806;18.774;2023-02-05T10:15:47;28.40;;;15.02;;
41043;SDS011;51680;49.806;18.774;2023-02-05T10:19:02;50.65;;;25.55;;
41043;SDS011;51680;49.806;18.774;2023-02-05T10:22:16;132.20;;;66.22;;
41043;SDS011;51680;49.806;18.774;2023-02-05T10:25:41;45.70;;;28.00;;
41043;SDS011;51680;49.806;18.774;2023-02-05T10:28:59;34.30;;;20.23;;
41043;SDS011;51680;49.806;18.774;2023-02-05T10:32:23;34.83;;;18.10;;
41043;SDS011;51680;49.806;18.774;2023-02-05T10:35:31;21.80;;;11.68;;
41043;SDS011;51680;49.806;18.774;2023-02-05T10:38:44;18.73;;;9.50;;
41043;SDS011;51680;49.806;18.774;2023-02-05T10:41:47;23.55;;;10.18;;
41043;SDS011;51680;49.806;18.774;2023-02-05T10:44:55;33.17;;;17.48;;
41043;SDS011;51680;49.806;18.774;2023-02-05T10:48:02;29.10;;;11.70;;
41043;SDS011;51680;49.806;18.774;2023-02-05T10:51:15;44.55;;;18.20;;
41043;SDS011;51680;49.806;18.774;2023-02-05T10:54:22;34.00;;;14.25;;
41043;SDS011;51680;49.806;18.774;2023-02-05T10:57:28;31.75;;;13.57;;
41043;SDS011;51680;49.806;18.774;2023-02-05T11:00:35;29.80;;;13.68;;
41043;SDS011;51680;49.806;18.774;2023-02-05T11:03:58;23.80;;;11.60;;
41043;SDS011;51680;49.806;18.774;2023-02-05T11:07:02;30.52;;;12.43;;
41043;SDS011;51680;49.806;18.774;2023-02-05T11:10:12;21.92;;;8.52;;
41043;SDS011;51680;49.806;18.774;2023-02-05T11:13:17;17.92;;;7.68;;
41043;SDS011;51680;49.806;18.774;2023-02-05T11:16:22;14.82;;;6.80;;
41043;SDS011;51680;49.806;18.774;2023-02-05T11:19:25;23.30;;;9.23;;
41043;SDS011;51680;49.806;18.774;2023-02-05T11:22:28;82.55;;;25.90;;
41043;SDS011;51680;49.806;18.774;2023-02-05T11:25:31;26.33;;;12.25;;
41043;SDS011;51680;49.806;18.774;2023-02-05T11:28:33;20.67;;;8.93;;
41043;SDS011;51680;49.806;18.774;2023-02-05T11:31:37;281.63;;;75.15;;
41043;SDS011;51680;49.806;18.774;2023-02-05T11:34:39;213.98;;;57.33;;
41043;SDS011;51680;49.806;18.774;2023-02-05T11:37:41;166.45;;;43.40;;
41043;SDS011;51680;49.806;18.774;2023-02-05T11:40:49;25.45;;;10.95;;
41043;SDS011;51680;49.806;18.774;2023-02-05T11:43:52;12.90;;;6.30;;
41043;SDS011;51680;49.806;18.774;2023-02-05T11:46:56;19.00;;;6.65;;
41043;SDS011;51680;49.806;18.774;2023-02-05T11:50:01;15.35;;;6.18;;
41043;SDS011;51680;49.806;18.774;2023-02-05T11:53:06;19.40;;;8.23;;
41043;SDS011;51680;49.806;18.774;2023-02-05T11:56:17;14.30;;;6.50;;
41043;SDS011;51680;49.806;18.774;2023-02-05T11:59:21;18.48;;;8.05;;
41043;SDS011;51680;49.806;18.774;2023-02-05T12:02:29;46.08;;;15.88;;
41043;SDS011;51680;49.806;18.774;2023-02-05T12:05:53;30.92;;;11.20;;
41043;SDS011;51680;49.806;18.774;2023-02-05T12:08:59;29.42;;;10.73;;
41043;SDS011;51680;49.806;18.774;2023-02-05T12:12:02;22.85;;;9.75;;
41043;SDS011;51680;49.806;18.774;2023-02-05T12:15:18;22.33;;;9.43;;
41043;SDS011;51680;49.806;18.774;2023-02-05T12:18:28;14.45;;;7.07;;
41043;SDS011;51680;49.806;18.774;2023-02-05T12:24:46;21.67;;;9.20;;
41043;SDS011;51680;49.806;18.774;2023-02-05T12:28:07;22.45;;;10.10;;
41043;SDS011;51680;49.806;18.774;2023-02-05T12:31:22;48.53;;;18.10;;
41043;SDS011;51680;49.806;18.774;2023-02-05T12:34:35;26.17;;;12.50;;
41043;SDS011;51680;49.806;18.774;2023-02-05T12:37:46;22.75;;;10.80;;
41043;SDS011;51680;49.806;18.774;2023-02-05T12:40:59;11.68;;;5.97;;
41043;SDS011;51680;49.806;18.774;2023-02-05T12:44:15;22.55;;;10.15;;
41043;SDS011;51680;49.806;18.774;2023-02-05T12:47:30;28.52;;;11.95;;
41043;SDS011;51680;49.806;18.774;2023-02-05T12:50:48;31.98;;;15.65;;
41043;SDS011;51680;49.806;18.774;2023-02-05T12:54:03;19.88;;;8.70;;
41043;SDS011;51680;49.806;18.774;2023-02-05T12:57:26;17.30;;;8.75;;
41043;SDS011;51680;49.806;18.774;2023-02-05T13:00:36;21.92;;;11.88;;
41043;SDS011;51680;49.806;18.774;2023-02-05T13:03:42;57.13;;;32.50;;
41043;SDS011;51680;49.806;18.774;2023-02-05T13:06:52;42.75;;;19.02;;
41043;SDS011;51680;49.806;18.774;2023-02-05T13:09:59;18.20;;;8.52;;
41043;SDS011;51680;49.806;18.774;2023-02-05T13:13:04;20.50;;;8.55;;
41043;SDS011;51680;49.806;18.774;2023-02-05T13:16:11;39.17;;;20.38;;
41043;SDS011;51680;49.806;18.774;2023-02-05T13:19:21;34.00;;;16.88;;
41043;SDS011;51680;49.806;18.774;2023-02-05T13:22:30;35.13;;;15.30;;
41043;SDS011;51680;49.806;18.774;2023-02-05T13:25:53;25.05;;;9.50;;
41043;SDS011;51680;49.806;18.774;2023-02-05T13:29:15;23.30;;;10.88;;
41043;SDS011;51680;49.806;18.774;2023-02-05T13:32:20;39.63;;;18.15;;
41043;SDS011;51680;49.806;18.774;2023-02-05T13:35:32;25.92;;;12.65;;
41043;SDS011;51680;49.806;18.774;2023-02-05T13:38:46;25.50;;;12.38;;
41043;SDS011;51680;49.806;18.774;2023-02-05T13:42:03;22.67;;;9.98;;
41043;SDS011;51680;49.806;18.774;2023-02-05T13:45:25;12.55;;;6.22;;
41043;SDS011;51680;49.806;18.774;2023-02-05T13:59:25;44.47;;;11.80;;
41043;SDS011;51680;49.806;18.774;2023-02-05T14:02:53;26.98;;;12.50;;
41043;SDS011;51680;49.806;18.774;2023-02-05T14:05:56;25.90;;;9.60;;
41043;SDS011;51680;49.806;18.774;2023-02-05T14:08:59;34.75;;;11.55;;
41043;SDS011;51680;49.806;18.774;2023-02-05T14:12:03;19.90;;;8.55;;
41043;SDS011;51680;49.806;18.774;2023-02-05T14:15:34;18.13;;;9.07;;
41043;SDS011;51680;49.806;18.774;2023-02-05T14:18:44;20.48;;;8.90;;
41043;SDS011;51680;49.806;18.774;2023-02-05T14:29:11;39.20;;;15.57;;
41043;SDS011;51680;49.806;18.774;2023-02-05T14:32:56;19.50;;;8.88;;
41043;SDS011;51680;49.806;18.774;2023-02-05T14:39:40;36.72;;;14.25;;
41043;SDS011;51680;49.806;18.774;2023-02-05T14:42:43;24.33;;;10.95;;
41043;SDS011;51680;49.806;18.774;2023-02-05T14:45:46;27.98;;;12.65;;
41043;SDS011;51680;49.806;18.774;2023-02-05T14:48:51;30.27;;;12.82;;
41043;SDS011;51680;49.806;18.774;2023-02-05T14:51:56;59.17;;;23.63;;
41043;SDS011;51680;49.806;18.774;2023-02-05T14:55:03;123.40;;;43.42;;
41043;SDS011;51680;49.806;18.774;2023-02-05T14:58:08;33.10;;;16.45;;
41043;SDS011;51680;49.806;18.774;2023-02-05T15:01:41;27.30;;;12.82;;
41043;SDS011;51680;49.806;18.774;2023-02-05T15:04:45;30.52;;;12.50;;
41043;SDS011;51680;49.806;18.774;2023-02-05T15:07:50;26.52;;;11.95;;
41043;SDS011;51680;49.806;18.774;2023-02-05T15:11:02;33.45;;;14.80;;
41043;SDS011;51680;49.806;18.774;2023-02-05T15:17:49;51.63;;;20.75;;
41043;SDS011;51680;49.806;18.774;2023-02-05T15:20:52;186.05;;;63.88;;
41043;SDS011;51680;49.806;18.774;2023-02-05T15:23:58;39.45;;;18.02;;
41043;SDS011;51680;49.806;18.774;2023-02-05T15:27:02;82.30;;;43.20;;
41043;SDS011;51680;49.806;18.774;2023-02-05T15:30:15;118.75;;;48.17;;
41043;SDS011;51680;49.806;18.774;2023-02-05T15:33:32;148.40;;;55.50;;
41043;SDS011;51680;49.806;18.774;2023-02-05T15:36:40;122.38;;;53.15;;
41043;SDS011;51680;49.806;18.774;2023-02-05T15:39:48;44.13;;;22.48;;
41043;SDS011;51680;49.806;18.774;2023-02-05T15:42:53;48.08;;;23.85;;
41043;SDS011;51680;49.806;18.774;2023-02-05T15:45:59;44.20;;;17.65;;
41043;SDS011;51680;49.806;18.774;2023-02-05T15:49:03;26.45;;;13.25;;
41043;SDS011;51680;49.806;18.774;2023-02-05T15:52:06;21.83;;;10.00;;
41043;SDS011;51680;49.806;18.774;2023-02-05T15:55:09;43.00;;;18.13;;
41043;SDS011;51680;49.806;18.774;2023-02-05T15:58:14;40.38;;;17.15;;
41043;SDS011;51680;49.806;18.774;2023-02-05T16:01:22;37.53;;;17.15;;
41043;SDS011;51680;49.806;18.774;2023-02-05T16:04:28;37.90;;;17.55;;
41043;SDS011;51680;49.806;18.774;2023-02-05T16:07:34;40.75;;;15.82;;
41043;SDS011;51680;49.806;18.774;2023-02-05T16:10:49;39.28;;;14.85;;
41043;SDS011;51680;49.806;18.774;2023-02-05T16:14:03;37.13;;;15.52;;
41043;SDS011;51680;49.806;18.774;2023-02-05T16:17:08;25.88;;;12.70;;
41043;SDS011;51680;49.806;18.774;2023-02-05T16:20:21;28.67;;;13.70;;
41043;SDS011;51680;49.806;18.774;2023-02-05T16:23:28;31.23;;;15.20;;
41043;SDS011;51680;49.806;18.774;2023-02-05T16:26:34;28.95;;;14.98;;
41043;SDS011;51680;49.806;18.774;2023-02-05T16:29:42;34.63;;;17.65;;
41043;SDS011;51680;49.806;18.774;2023-02-05T16:32:50;32.00;;;16.92;;
41043;SDS011;51680;49.806;18.774;2023-02-05T16:35:55;27.60;;;14.20;;
41043;SDS011;51680;49.806;18.774;2023-02-05T16:39:01;28.85;;;14.15;;
41043;SDS011;51680;49.806;18.774;2023-02-05T16:42:05;34.30;;;14.70;;
41043;SDS011;51680;49.806;18.774;2023-02-05T16:45:19;32.13;;;15.52;;
41043;SDS011;51680;49.806;18.774;2023-02-05T16:48:22;29.73;;;14.23;;
41043;SDS011;51680;49.806;18.774;2023-02-05T16:51:30;33.05;;;15.00;;
41043;SDS011;51680;49.806;18.774;2023-02-05T16:54:37;36.13;;;15.57;;
41043;SDS011;51680;49.806;18.774;2023-02-05T16:57:40;46.97;;;18.23;;
41043;SDS011;51680;49.806;18.774;2023-02-05T17:00:50;38.95;;;15.52;;
41043;SDS011;51680;49.806;18.774;2023-02-05T17:03:53;65.00;;;26.77;;
41043;SDS011;51680;49.806;18.774;2023-02-05T17:06:57;61.03;;;25.50;;
41043;SDS011;51680;49.806;18.774;2023-02-05T17:10:15;41.22;;;19.52;;
41043;SDS011;51680;49.806;18.774;2023-02-05T17:13:36;37.35;;;15.45;;
41043;SDS011;51680;49.806;18.774;2023-02-05T17:16:39;67.93;;;31.63;;
41043;SDS011;51680;49.806;18.774;2023-02-05T17:19:42;52.47;;;23.98;;
41043;SDS011;51680;49.806;18.774;2023-02-05T17:26:11;63.55;;;27.23;;
41043;SDS011;51680;49.806;18.774;2023-02-05T17:29:14;60.25;;;23.63;;
41043;SDS011;51680;49.806;18.774;2023-02-05T17:32:16;42.92;;;20.00;;
41043;SDS011;51680;49.806;18.774;2023-02-05T17:41:27;41.03;;;18.17;;
41043;SDS011;51680;49.806;18.774;2023-02-05T17:44:51;55.75;;;23.60;;
41043;SDS011;51680;49.806;18.774;2023-02-05T17:50:55;47.13;;;21.10;;
41043;SDS011;51680;49.806;18.774;2023-02-05T17:53:59;52.50;;;21.42;;
41043;SDS011;51680;49.806;18.774;2023-02-05T17:57:06;62.85;;;25.15;;
41043;SDS011;51680;49.806;18.774;2023-02-05T18:00:15;58.67;;;25.50;;
41043;SDS011;51680;49.806;18.774;2023-02-05T18:03:18;65.22;;;25.08;;
41043;SDS011;51680;49.806;18.774;2023-02-05T18:06:20;61.63;;;26.38;;
41043;SDS011;51680;49.806;18.774;2023-02-05T18:09:23;68.72;;;27.48;;
41043;SDS011;51680;49.806;18.774;2023-02-05T18:12:25;65.35;;;27.88;;
41043;SDS011;51680;49.806;18.774;2023-02-05T18:15:27;50.08;;;22.38;;
41043;SDS011;51680;49.806;18.774;2023-02-05T18:18:33;46.92;;;19.67;;
41043;SDS011;51680;49.806;18.774;2023-02-05T18:21:37;50.25;;;20.70;;
41043;SDS011;51680;49.806;18.774;2023-02-05T18:24:40;50.85;;;21.40;;
41043;SDS011;51680;49.806;18.774;2023-02-05T18:27:42;57.20;;;22.50;;
41043;SDS011;51680;49.806;18.774;2023-02-05T18:30:44;50.70;;;21.50;;
41043;SDS011;51680;49.806;18.774;2023-02-05T18:33:46;49.15;;;20.58;;
41043;SDS011;51680;49.806;18.774;2023-02-05T18:36:48;43.85;;;17.98;;
41043;SDS011;51680;49.806;18.774;2023-02-05T18:39:51;47.92;;;20.85;;
41043;SDS011;51680;49.806;18.774;2023-02-05T18:42:53;42.83;;;17.98;;
41043;SDS011;51680;49.806;18.774;2023-02-05T18:45:55;32.72;;;14.73;;
41043;SDS011;51680;49.806;18.774;2023-02-05T18:48:57;28.60;;;14.23;;
41043;SDS011;51680;49.806;18.774;2023-02-05T18:52:00;28.80;;;13.80;;
41043;SDS011;51680;49.806;18.774;2023-02-05T18:55:06;26.73;;;14.05;;
41043;SDS011;51680;49.806;18.774;2023-02-05T18:58:08;39.65;;;20.15;;
41043;SDS011;51680;49.806;18.774;2023-02-05T19:01:10;41.13;;;19.13;;
41043;SDS011;51680;49.806;18.774;2023-02-05T19:04:14;43.50;;;21.20;;
41043;SDS011;51680;49.806;18.774;2023-02-05T19:07:17;46.03;;;20.30;;